Time;durP1;ratioP1;P1;durP2;ratioP2;P2;SDS_P1;SDS_P2;PMS_P1;PMS_P2;Temp;Humidity;BMP_temperature;BMP_pressure;BME280_temperature;BME280_humidity;BME280_pressure;Samples;Min_cycle;Max_cycle;Signal;HPM_P1;HPM_P2
2022/01/08 00:01:30;;;;;;;1.35;0.60;;;6.30;99.90;;;;;;5022273;28;20213;-74
2022/01/08 00:03:58;;;;;;;0.82;0.70;;;6.30;99.90;;;;;;5028721;28;20221;-72
2022/01/08 00:06:29;;;;;;;0.75;0.65;;;6.30;99.90;;;;;;5014152;28;20465;-72
2022/01/08 00:08:57;;;;;;;3.33;0.70;;;6.30;99.90;;;;;;5028831;28;20246;-73
2022/01/08 00:11:27;;;;;;;2.10;0.75;;;6.30;99.90;;;;;;5027106;28;20653;-73
2022/01/08 00:13:56;;;;;;;1.50;0.88;;;6.30;99.90;;;;;;5029009;28;20185;-72
2022/01/08 00:16:24;;;;;;;1.20;1.00;;;6.30;99.90;;;;;;5021540;28;20336;-73
2022/01/08 00:18:52;;;;;;;0.65;0.65;;;6.30;99.90;;;;;;5028682;28;20563;-72
2022/01/08 00:21:20;;;;;;;1.02;0.57;;;6.30;99.90;;;;;;5027854;28;20232;-72
2022/01/08 00:23:53;;;;;;;1.10;0.60;;;6.30;99.90;;;;;;5028260;28;20299;-72
2022/01/08 00:26:21;;;;;;;1.08;0.95;;;6.30;99.90;;;;;;5024594;28;20221;-73
2022/01/08 00:28:49;;;;;;;0.90;0.80;;;6.30;99.90;;;;;;5028431;28;20224;-73
2022/01/08 00:31:17;;;;;;;1.00;0.90;;;6.30;99.90;;;;;;5019134;28;20249;-73
2022/01/08 00:33:47;;;;;;;1.10;0.68;;;6.30;99.90;;;;;;5023144;28;20209;-72
2022/01/08 00:36:15;;;;;;;1.05;0.95;;;6.30;99.90;;;;;;5027448;28;20263;-72
2022/01/08 00:38:43;;;;;;;2.92;1.00;;;6.30;99.90;;;;;;5027895;28;20914;-72
2022/01/08 00:41:12;;;;;;;0.70;0.70;;;6.30;99.90;;;;;;5015732;28;20229;-73
2022/01/08 00:43:40;;;;;;;0.90;0.70;;;6.30;99.90;;;;;;5027314;28;20675;-73
2022/01/08 00:46:09;;;;;;;2.60;0.70;;;6.30;99.90;;;;;;5026162;28;20347;-72
2022/01/08 00:48:37;;;;;;;0.93;0.80;;;6.20;99.90;;;;;;5027800;28;20709;-72
2022/01/08 00:51:05;;;;;;;0.82;0.75;;;6.30;99.90;;;;;;5027399;28;20300;-74
2022/01/08 00:53:33;;;;;;;0.93;0.82;;;6.30;99.90;;;;;;5027952;28;20625;-73
2022/01/08 00:56:01;;;;;;;0.98;0.88;;;6.30;99.90;;;;;;5017181;28;20240;-72
2022/01/08 00:58:30;;;;;;;0.80;0.75;;;6.30;99.90;;;;;;5028290;28;20563;-72
2022/01/08 01:00:58;;;;;;;0.80;0.80;;;6.20;99.90;;;;;;5020809;28;20680;-72
2022/01/08 01:03:27;;;;;;;1.10;0.60;;;6.30;99.90;;;;;;5020048;28;20236;-72
2022/01/08 01:05:55;;;;;;;1.60;0.60;;;6.20;99.90;;;;;;5027101;28;20218;-73
2022/01/08 01:08:23;;;;;;;1.05;0.75;;;6.20;99.90;;;;;;5027444;28;20197;-72
2022/01/08 01:10:51;;;;;;;0.90;0.73;;;6.30;99.90;;;;;;5018602;28;20201;-74
2022/01/08 01:13:19;;;;;;;1.20;1.05;;;6.20;99.90;;;;;;5027776;28;20217;-72
2022/01/08 01:15:48;;;;;;;0.60;0.50;;;6.30;99.90;;;;;;5022397;28;20683;-75
2022/01/08 01:18:16;;;;;;;1.40;0.88;;;6.20;99.90;;;;;;5026688;28;20296;-73
2022/01/08 01:20:45;;;;;;;0.93;0.80;;;6.20;99.90;;;;;;5027324;28;20652;-74
2022/01/08 01:23:17;;;;;;;1.33;0.85;;;6.20;99.90;;;;;;5027847;28;20223;-72
2022/01/08 01:25:50;;;;;;;0.70;0.70;;;6.20;99.90;;;;;;5018836;28;20263;-73
2022/01/08 01:28:31;;;;;;;1.60;0.90;;;6.20;99.90;;;;;;5027580;28;20197;-73
2022/01/08 01:42:34;;;;;;;0.80;0.60;;;6.20;99.90;;;;;;5026877;28;20229;-73
2022/01/08 01:47:50;;;;;;;0.60;0.50;;;6.20;99.90;;;;;;5014176;28;20276;-73
2022/01/08 01:50:18;;;;;;;1.90;0.95;;;6.20;99.90;;;;;;5027604;28;20576;-72
2022/01/08 01:52:46;;;;;;;1.08;0.82;;;6.20;99.90;;;;;;5027092;28;20565;-73
2022/01/08 01:55:14;;;;;;;0.90;0.70;;;6.20;99.90;;;;;;5020933;28;20263;-72
2022/01/08 01:57:42;;;;;;;0.80;0.80;;;6.20;99.90;;;;;;5026744;28;20844;-74
2022/01/08 02:00:12;;;;;;;1.05;0.88;;;6.20;99.90;;;;;;5027228;28;20193;-73
2022/01/08 02:02:40;;;;;;;1.30;0.80;;;6.20;99.90;;;;;;5012997;28;20268;-73
2022/01/08 02:05:10;;;;;;;1.10;0.73;;;6.20;99.90;;;;;;5027183;28;20228;-72
2022/01/08 02:07:38;;;;;;;1.23;0.90;;;6.20;99.90;;;;;;5026703;28;20225;-72
2022/01/08 02:10:08;;;;;;;1.10;1.00;;;6.20;99.90;;;;;;5022793;28;20252;-73
2022/01/08 02:12:36;;;;;;;1.13;0.90;;;6.20;99.90;;;;;;5027854;28;20278;-73
2022/01/08 02:15:05;;;;;;;2.13;1.08;;;6.20;99.90;;;;;;5028862;28;20564;-72
2022/01/08 02:17:33;;;;;;;0.80;0.80;;;6.20;99.90;;;;;;5029825;28;20216;-72
2022/01/08 02:20:03;;;;;;;1.10;1.00;;;6.20;99.90;;;;;;5030908;28;20201;-73
2022/01/08 02:22:31;;;;;;;2.35;1.08;;;6.20;99.90;;;;;;5030268;28;20221;-73
2022/01/08 02:24:59;;;;;;;0.73;0.73;;;6.20;99.90;;;;;;5027772;28;20836;-72
2022/01/08 02:27:27;;;;;;;0.85;0.60;;;6.20;99.90;;;;;;5021038;28;20303;-73
2022/01/08 02:29:55;;;;;;;1.63;0.80;;;6.20;99.90;;;;;;5030761;28;20529;-73
2022/01/08 02:32:27;;;;;;;0.60;0.60;;;6.20;99.90;;;;;;5016406;28;20248;-73
2022/01/08 02:34:55;;;;;;;1.45;1.00;;;6.20;99.90;;;;;;5030402;28;20656;-74
2022/01/08 02:37:29;;;;;;;1.48;0.70;;;6.20;99.90;;;;;;5030070;28;20981;-72
2022/01/08 02:40:02;;;;;;;1.02;0.85;;;6.20;99.90;;;;;;5023698;28;20196;-72
2022/01/08 02:42:37;;;;;;;1.13;0.50;;;6.20;99.90;;;;;;5014326;28;20908;-72
2022/01/08 02:45:07;;;;;;;1.17;0.90;;;6.20;99.90;;;;;;5029952;28;20685;-72
2022/01/08 02:47:35;;;;;;;1.00;0.70;;;6.10;99.90;;;;;;5023856;28;20772;-72
2022/01/08 02:50:04;;;;;;;1.05;0.88;;;6.10;99.90;;;;;;5028849;28;20193;-72
2022/01/08 02:52:34;;;;;;;1.10;1.00;;;6.10;99.90;;;;;;5028989;28;20642;-72
2022/01/08 02:55:02;;;;;;;2.15;0.80;;;6.10;99.90;;;;;;5016480;28;20221;-72
2022/01/08 02:57:30;;;;;;;2.25;1.13;;;6.10;99.90;;;;;;5014275;28;20715;-73
2022/01/08 02:59:58;;;;;;;1.30;1.17;;;6.10;99.90;;;;;;5030074;28;20197;-72
2022/01/08 03:02:26;;;;;;;1.80;1.10;;;6.10;99.90;;;;;;5023208;28;20220;-73
2022/01/08 03:04:54;;;;;;;1.15;0.80;;;6.10;99.90;;;;;;5029241;28;20201;-72
2022/01/08 03:07:22;;;;;;;1.90;1.25;;;6.10;99.90;;;;;;5029026;28;20337;-72
2022/01/08 03:09:56;;;;;;;2.00;1.40;;;6.10;99.90;;;;;;5028179;28;20268;-72
2022/01/08 03:12:27;;;;;;;2.15;1.38;;;6.10;99.90;;;;;;5029183;28;20229;-72
2022/01/08 03:14:56;;;;;;;0.98;0.90;;;6.10;99.90;;;;;;5029295;28;20197;-73
2022/01/08 03:17:24;;;;;;;1.30;0.95;;;6.10;99.90;;;;;;5024080;28;20691;-72
2022/01/08 03:19:54;;;;;;;1.20;1.10;;;6.10;99.90;;;;;;5030102;28;20197;-73
2022/01/08 03:22:22;;;;;;;1.48;1.13;;;6.10;99.90;;;;;;5028933;28;20247;-72
2022/01/08 03:24:51;;;;;;;3.42;1.40;;;6.10;99.90;;;;;;5028387;28;20216;-72
2022/01/08 03:27:19;;;;;;;3.13;1.98;;;6.10;99.90;;;;;;5027813;28;20667;-72
2022/01/08 03:29:47;;;;;;;3.70;2.05;;;6.10;99.90;;;;;;5029592;28;20193;-73
2022/01/08 03:32:16;;;;;;;2.13;1.60;;;6.10;99.90;;;;;;5022941;28;20642;-73
2022/01/08 03:34:44;;;;;;;2.30;1.67;;;6.10;99.90;;;;;;5029296;28;20216;-72
2022/01/08 03:37:12;;;;;;;2.70;2.00;;;6.10;99.90;;;;;;5028417;28;20324;-73
2022/01/08 03:39:41;;;;;;;5.00;2.03;;;6.10;99.90;;;;;;5026737;28;20416;-73
2022/01/08 03:42:10;;;;;;;3.08;1.50;;;6.10;99.90;;;;;;5028633;28;20221;-72
2022/01/08 03:44:39;;;;;;;1.70;1.40;;;6.10;99.90;;;;;;5029168;28;20193;-72
2022/01/08 03:47:30;;;;;;;2.50;2.13;;;6.10;99.90;;;;;;5022218;28;20230;-72
2022/01/08 03:50:00;;;;;;;2.30;2.10;;;6.10;99.90;;;;;;5029139;28;20663;-73
2022/01/08 03:52:33;;;;;;;1.98;1.88;;;6.10;99.90;;;;;;5013380;28;20228;-73
2022/01/08 03:55:01;;;;;;;2.70;2.50;;;6.10;99.90;;;;;;5026796;28;20193;-72
2022/01/08 03:57:31;;;;;;;4.75;2.25;;;6.10;99.90;;;;;;5021206;28;20220;-73
2022/01/08 03:59:59;;;;;;;2.70;2.38;;;6.10;99.90;;;;;;5027648;28;20193;-73
2022/01/08 04:02:27;;;;;;;2.53;2.28;;;6.10;99.90;;;;;;5026874;28;20256;-72
2022/01/08 04:04:55;;;;;;;4.03;2.75;;;6.00;99.90;;;;;;5028403;28;20677;-74
2022/01/08 04:07:23;;;;;;;2.45;2.25;;;6.10;99.90;;;;;;5028087;28;20232;-74
2022/01/08 04:09:51;;;;;;;3.30;2.25;;;6.00;99.90;;;;;;5021894;28;20304;-73
2022/01/08 04:12:32;;;;;;;4.10;2.72;;;6.00;99.90;;;;;;5027931;28;20225;-72
2022/01/08 04:15:07;;;;;;;3.72;2.85;;;6.00;99.90;;;;;;5027834;28;20266;-72
2022/01/08 04:17:35;;;;;;;3.10;2.38;;;6.10;99.90;;;;;;5021928;28;20310;-72
2022/01/08 04:20:04;;;;;;;4.32;2.35;;;6.00;99.90;;;;;;5028502;28;20182;-72
2022/01/08 04:22:35;;;;;;;4.40;2.53;;;6.00;99.90;;;;;;5025295;28;20240;-73
2022/01/08 04:25:03;;;;;;;4.68;3.90;;;6.00;99.90;;;;;;5027784;28;20247;-72
2022/01/08 04:27:33;;;;;;;6.70;4.60;;;6.00;99.90;;;;;;5027351;28;20290;-73
2022/01/08 04:30:04;;;;;;;2.88;1.92;;;6.00;99.90;;;;;;5028161;28;20664;-73
2022/01/08 04:32:33;;;;;;;3.15;2.90;;;6.00;99.90;;;;;;5021294;28;20225;-72
2022/01/08 04:35:01;;;;;;;2.60;2.03;;;6.00;99.90;;;;;;5027913;28;20284;-72
2022/01/08 04:37:29;;;;;;;4.43;3.00;;;6.00;99.90;;;;;;5027237;28;20351;-73
2022/01/08 04:39:57;;;;;;;3.40;2.83;;;6.00;99.90;;;;;;5025754;28;20236;-72
2022/01/08 04:42:25;;;;;;;3.67;2.97;;;6.00;99.90;;;;;;5027651;28;20294;-73
2022/01/08 04:44:54;;;;;;;3.80;2.70;;;6.00;99.90;;;;;;5026303;28;20185;-74
2022/01/08 04:47:24;;;;;;;4.65;3.50;;;6.00;99.90;;;;;;5021379;28;20286;-71
2022/01/08 04:49:52;;;;;;;3.00;2.42;;;6.00;99.90;;;;;;5028631;28;20256;-73
2022/01/08 04:52:20;;;;;;;5.15;3.03;;;6.00;99.90;;;;;;5027364;28;20225;-73
2022/01/08 04:54:48;;;;;;;3.42;2.90;;;6.00;99.90;;;;;;5025376;28;20197;-72
2022/01/08 04:57:16;;;;;;;4.00;2.90;;;6.00;99.90;;;;;;5018418;28;20213;-73
2022/01/08 04:59:44;;;;;;;3.00;2.42;;;6.00;99.90;;;;;;5026518;28;20185;-72
2022/01/08 05:02:12;;;;;;;3.45;3.00;;;6.00;99.90;;;;;;5021258;28;21046;-72
2022/01/08 05:04:42;;;;;;;5.15;3.28;;;6.00;99.90;;;;;;5027480;28;20196;-72
2022/01/08 05:07:11;;;;;;;3.17;2.65;;;6.00;99.90;;;;;;5027295;28;20223;-72
2022/01/08 05:09:41;;;;;;;4.10;2.35;;;6.00;99.90;;;;;;5025200;28;20272;-72
2022/01/08 05:12:11;;;;;;;2.75;2.55;;;6.00;99.90;;;;;;5024981;28;20691;-72
2022/01/08 05:14:39;;;;;;;3.05;2.83;;;6.00;99.90;;;;;;5027430;28;20221;-72
2022/01/08 05:17:08;;;;;;;3.13;2.75;;;6.00;99.90;;;;;;5026079;28;20294;-73
2022/01/08 05:19:43;;;;;;;3.25;2.25;;;6.00;99.90;;;;;;5027387;28;20216;-72
2022/01/08 05:22:21;;;;;;;3.08;2.30;;;6.00;99.90;;;;;;5026952;28;20224;-72
2022/01/08 05:24:49;;;;;;;3.60;2.53;;;6.00;99.90;;;;;;5026803;28;20201;-72
2022/01/08 05:27:18;;;;;;;3.80;2.47;;;6.00;99.90;;;;;;5027120;28;20500;-72
2022/01/08 05:29:47;;;;;;;3.45;2.78;;;6.00;99.90;;;;;;5027980;28;20220;-73
2022/01/08 05:32:17;;;;;;;2.20;2.00;;;6.00;99.90;;;;;;5024479;28;20218;-72
2022/01/08 05:34:46;;;;;;;2.90;2.60;;;6.00;99.90;;;;;;5027473;28;20620;-72
2022/01/08 05:37:17;;;;;;;2.13;1.92;;;6.00;99.90;;;;;;5027251;28;20210;-72
2022/01/08 05:39:46;;;;;;;2.55;2.35;;;6.00;99.90;;;;;;5023190;28;20194;-73
2022/01/08 05:42:14;;;;;;;2.40;2.20;;;6.00;99.90;;;;;;5025616;28;20252;-73
2022/01/08 05:44:42;;;;;;;3.00;2.65;;;6.00;99.90;;;;;;5027269;28;20875;-73
2022/01/08 05:47:11;;;;;;;5.13;2.25;;;6.00;99.90;;;;;;5021204;28;20228;-72
2022/01/08 05:49:40;;;;;;;3.58;2.45;;;6.00;99.90;;;;;;5031304;28;20201;-72
2022/01/08 05:52:08;;;;;;;3.03;2.83;;;6.00;99.90;;;;;;5030815;28;20841;-73
2022/01/08 05:54:37;;;;;;;3.30;3.00;;;6.00;99.90;;;;;;5029879;28;20220;-72
2022/01/08 05:57:06;;;;;;;3.28;2.50;;;5.90;99.90;;;;;;5030457;28;20248;-72
2022/01/08 05:59:34;;;;;;;2.95;2.35;;;5.90;99.90;;;;;;5030987;28;20193;-73
2022/01/08 06:02:03;;;;;;;2.97;2.45;;;5.90;99.90;;;;;;5024155;28;20225;-72
2022/01/08 06:04:31;;;;;;;3.20;2.28;;;5.90;99.90;;;;;;5030809;28;20221;-71
2022/01/08 06:06:59;;;;;;;3.08;2.42;;;5.90;99.90;;;;;;5030114;28;20213;-73
2022/01/08 06:09:28;;;;;;;3.20;2.35;;;5.90;99.90;;;;;;5030962;28;20224;-72
2022/01/08 06:11:57;;;;;;;3.22;2.67;;;5.90;99.90;;;;;;5029477;28;20247;-73
2022/01/08 06:14:25;;;;;;;3.50;2.72;;;5.90;99.90;;;;;;5030395;28;20185;-72
2022/01/08 06:16:53;;;;;;;3.17;2.50;;;5.90;99.90;;;;;;5024878;28;20643;-73
2022/01/08 06:19:21;;;;;;;3.28;2.83;;;5.90;99.90;;;;;;5030748;28;20243;-73
2022/01/08 06:21:49;;;;;;;3.60;2.10;;;5.90;99.90;;;;;;5030780;28;20287;-72
2022/01/08 06:24:18;;;;;;;3.17;2.63;;;5.90;99.90;;;;;;5024283;28;20198;-72
2022/01/08 06:26:46;;;;;;;3.88;2.70;;;5.90;99.90;;;;;;5024897;28;20670;-72
2022/01/08 06:29:15;;;;;;;5.95;2.70;;;5.90;99.90;;;;;;5020929;28;20248;-73
2022/01/08 06:31:43;;;;;;;2.95;2.53;;;5.90;99.90;;;;;;5029365;28;20865;-73
2022/01/08 06:34:11;;;;;;;3.53;3.00;;;5.90;99.90;;;;;;5028691;28;20221;-73
2022/01/08 06:36:41;;;;;;;5.45;3.38;;;5.90;99.90;;;;;;5030290;28;20259;-73
2022/01/08 06:39:09;;;;;;;4.35;3.40;;;5.90;99.90;;;;;;5030829;28;20205;-72
2022/01/08 06:41:37;;;;;;;5.00;3.47;;;5.90;99.90;;;;;;5023313;28;20219;-72
2022/01/08 06:44:06;;;;;;;3.25;2.95;;;5.90;99.90;;;;;;5030346;28;20207;-72
2022/01/08 06:46:35;;;;;;;3.05;2.70;;;5.90;99.90;;;;;;5018937;28;20644;-72
2022/01/08 06:49:03;;;;;;;3.97;2.88;;;5.90;99.90;;;;;;5026573;28;20213;-72
2022/01/08 06:51:31;;;;;;;3.22;2.47;;;5.90;99.90;;;;;;5029756;28;20729;-72
2022/01/08 06:53:59;;;;;;;3.17;2.72;;;5.90;99.90;;;;;;5022851;28;20190;-73
2022/01/08 06:56:27;;;;;;;3.35;2.35;;;5.90;99.90;;;;;;5022163;28;20228;-72
2022/01/08 06:58:56;;;;;;;2.90;2.65;;;5.90;99.90;;;;;;5030160;28;20532;-72
2022/01/08 07:01:24;;;;;;;4.10;3.80;;;5.90;99.90;;;;;;5020446;28;20775;-73
2022/01/08 07:03:55;;;;;;;5.15;3.00;;;5.90;99.90;;;;;;5025846;28;20590;-72
2022/01/08 07:06:23;;;;;;;2.97;2.65;;;5.90;99.90;;;;;;5029281;28;20900;-73
2022/01/08 07:08:54;;;;;;;3.35;2.95;;;5.80;99.90;;;;;;5025846;28;20214;-73
2022/01/08 07:11:22;;;;;;;5.40;3.92;;;5.90;99.90;;;;;;5020915;28;20232;-71
2022/01/08 07:13:50;;;;;;;3.95;3.08;;;5.90;99.90;;;;;;5028403;28;20197;-72
2022/01/08 07:16:18;;;;;;;2.60;2.40;;;5.80;99.90;;;;;;5023283;28;20241;-72
2022/01/08 07:18:46;;;;;;;5.03;2.85;;;5.80;99.90;;;;;;5024581;28;20702;-73
2022/01/08 07:21:15;;;;;;;6.70;3.80;;;5.80;99.90;;;;;;5028856;28;20221;-72
2022/01/08 07:23:43;;;;;;;3.03;2.72;;;5.80;99.90;;;;;;5025535;28;20205;-72
2022/01/08 07:26:12;;;;;;;3.50;3.20;;;5.80;99.90;;;;;;5018567;28;20761;-72
2022/01/08 07:28:40;;;;;;;6.50;3.20;;;5.80;99.90;;;;;;5029363;28;20762;-72
2022/01/08 07:31:08;;;;;;;3.88;2.75;;;5.80;99.90;;;;;;5027562;28;20221;-73
2022/01/08 07:33:36;;;;;;;5.55;3.58;;;5.80;99.90;;;;;;5029155;28;20276;-73
2022/01/08 07:36:04;;;;;;;5.03;2.55;;;5.80;99.90;;;;;;5028566;28;20251;-72
2022/01/08 07:38:34;;;;;;;4.70;3.50;;;5.80;99.90;;;;;;5027136;28;20194;-73
2022/01/08 07:41:02;;;;;;;3.63;3.05;;;5.80;99.90;;;;;;5025497;28;20220;-74
2022/01/08 07:43:30;;;;;;;6.20;3.80;;;5.80;99.90;;;;;;5027672;28;20189;-72
2022/01/08 07:45:58;;;;;;;3.10;2.58;;;5.80;99.90;;;;;;5022750;28;20217;-72
2022/01/08 07:48:27;;;;;;;4.10;3.17;;;5.80;99.90;;;;;;5028774;28;20232;-74
2022/01/08 07:50:55;;;;;;;4.15;2.85;;;5.80;99.90;;;;;;5027516;28;20194;-72
2022/01/08 07:53:23;;;;;;;4.03;2.78;;;5.80;99.90;;;;;;5030088;28;20251;-72
2022/01/08 07:55:52;;;;;;;5.28;3.47;;;5.80;99.90;;;;;;5024967;28;20284;-72
2022/01/08 07:58:21;;;;;;;4.75;3.42;;;5.80;99.90;;;;;;5028918;28;20197;-73
2022/01/08 08:00:49;;;;;;;3.92;2.85;;;5.80;99.90;;;;;;5024024;28;20781;-72
2022/01/08 08:03:18;;;;;;;4.10;2.50;;;5.80;99.90;;;;;;5020152;28;20203;-72
2022/01/08 08:05:46;;;;;;;4.85;3.10;;;5.80;99.90;;;;;;5028639;28;20456;-73
2022/01/08 08:08:16;;;;;;;6.93;3.22;;;5.80;99.90;;;;;;5029336;28;20209;-73
2022/01/08 08:10:47;;;;;;;4.15;2.80;;;5.80;99.90;;;;;;5022709;28;20198;-73
2022/01/08 08:13:17;;;;;;;5.03;3.03;;;5.80;99.90;;;;;;5026945;28;20699;-73
2022/01/08 08:15:45;;;;;;;3.20;2.90;;;5.80;99.90;;;;;;5013071;28;20735;-73
2022/01/08 08:18:14;;;;;;;4.40;3.00;;;5.80;99.90;;;;;;5024807;28;20280;-72
2022/01/08 08:20:42;;;;;;;3.70;3.00;;;5.80;99.90;;;;;;5027699;28;20570;-72
2022/01/08 08:23:11;;;;;;;3.88;2.55;;;5.80;99.90;;;;;;5025573;28;20201;-72
2022/01/08 08:25:39;;;;;;;3.45;2.92;;;5.80;99.90;;;;;;5027860;28;20251;-73
2022/01/08 08:28:07;;;;;;;4.38;2.80;;;5.80;99.90;;;;;;5008355;28;20264;-73
2022/01/08 08:30:37;;;;;;;3.40;3.10;;;5.80;99.90;;;;;;5005937;28;20200;-72
2022/01/08 08:33:05;;;;;;;4.00;2.83;;;5.80;99.90;;;;;;5005295;28;20227;-73
2022/01/08 08:35:34;;;;;;;3.28;2.97;;;5.80;99.90;;;;;;5008055;28;20719;-72
2022/01/08 08:38:02;;;;;;;3.40;2.78;;;5.80;99.90;;;;;;5025772;28;20283;-73
2022/01/08 08:40:31;;;;;;;3.38;2.55;;;5.80;99.90;;;;;;5020653;28;20193;-72
2022/01/08 08:42:59;;;;;;;3.80;3.30;;;5.80;99.90;;;;;;5027416;28;20717;-73
2022/01/08 08:45:27;;;;;;;4.47;2.85;;;5.80;99.90;;;;;;5023498;28;20217;-72
2022/01/08 08:47:57;;;;;;;5.53;2.95;;;5.80;99.90;;;;;;5027046;28;20225;-73
2022/01/08 08:50:25;;;;;;;3.90;2.80;;;5.80;99.90;;;;;;5027477;28;20243;-72
2022/01/08 08:52:54;;;;;;;4.22;2.78;;;5.80;99.90;;;;;;5026822;28;20279;-72
2022/01/08 08:55:22;;;;;;;4.00;2.80;;;5.80;99.90;;;;;;5008999;28;20220;-73
2022/01/08 08:57:51;;;;;;;4.07;3.05;;;5.80;99.90;;;;;;5026993;28;20596;-72
2022/01/08 09:00:20;;;;;;;4.30;3.42;;;5.80;99.90;;;;;;5027099;28;20579;-73
2022/01/08 09:02:48;;;;;;;2.92;2.72;;;5.80;99.90;;;;;;5021900;28;20287;-73
2022/01/08 09:05:18;;;;;;;4.50;3.00;;;5.80;99.90;;;;;;5027470;28;20216;-73
2022/01/08 09:07:46;;;;;;;3.42;3.05;;;5.70;99.90;;;;;;5026830;28;20220;-73
2022/01/08 09:10:14;;;;;;;3.67;1.85;;;5.70;99.90;;;;;;5020965;28;20680;-72
2022/01/08 09:12:43;;;;;;;3.45;2.25;;;5.80;99.90;;;;;;5021118;28;20228;-73
2022/01/08 09:15:12;;;;;;;2.72;2.53;;;5.70;99.90;;;;;;5027294;28;20869;-73
2022/01/08 09:17:40;;;;;;;3.35;2.55;;;5.70;99.90;;;;;;5021334;28;20694;-72
2022/01/08 09:20:10;;;;;;;3.88;2.63;;;5.70;99.90;;;;;;5009491;28;21009;-72
2022/01/08 09:22:40;;;;;;;4.30;2.80;;;5.70;99.90;;;;;;5028182;28;20213;-73
2022/01/08 09:25:09;;;;;;;3.72;2.40;;;5.70;99.90;;;;;;5027453;28;20202;-72
2022/01/08 09:27:37;;;;;;;4.50;2.58;;;5.70;99.90;;;;;;5030979;28;20217;-73
2022/01/08 09:30:07;;;;;;;3.58;2.60;;;5.70;99.90;;;;;;5031683;28;20204;-73
2022/01/08 09:32:35;;;;;;;3.80;2.38;;;5.70;99.90;;;;;;5025611;28;20228;-72
2022/01/08 09:35:05;;;;;;;3.97;2.80;;;5.70;99.90;;;;;;5013421;28;20634;-73
2022/01/08 09:37:37;;;;;;;2.85;2.25;;;5.70;99.90;;;;;;5031196;28;20232;-72
2022/01/08 09:40:10;;;;;;;2.40;2.20;;;5.70;99.90;;;;;;5014162;28;20198;-71
2022/01/08 09:42:40;;;;;;;3.10;2.75;;;5.70;99.90;;;;;;5030248;28;20278;-72
2022/01/08 09:45:09;;;;;;;2.67;2.47;;;5.70;99.90;;;;;;5031572;28;20266;-72
2022/01/08 09:47:38;;;;;;;3.78;2.30;;;5.70;99.90;;;;;;5011723;28;20284;-72
2022/01/08 09:50:07;;;;;;;2.38;2.15;;;5.70;99.90;;;;;;5028551;28;20201;-72
2022/01/08 09:52:36;;;;;;;2.92;2.42;;;5.70;99.90;;;;;;5030088;28;20278;-73
2022/01/08 09:55:07;;;;;;;4.05;2.92;;;5.70;99.90;;;;;;5030187;28;20197;-72
2022/01/08 09:57:36;;;;;;;2.72;2.33;;;5.70;99.90;;;;;;5030425;28;20221;-72
2022/01/08 10:00:11;;;;;;;3.92;2.58;;;5.70;99.90;;;;;;5031313;28;20237;-73
2022/01/08 10:02:39;;;;;;;2.65;2.28;;;5.70;99.90;;;;;;5023858;28;20282;-72
2022/01/08 10:05:09;;;;;;;2.40;2.17;;;5.70;99.90;;;;;;5030779;28;20189;-74
2022/01/08 10:07:40;;;;;;;2.63;2.30;;;5.70;99.90;;;;;;5030892;28;20231;-73
2022/01/08 10:10:13;;;;;;;1.95;1.80;;;5.70;99.90;;;;;;5029641;28;20217;-72
2022/01/08 10:12:49;;;;;;;2.78;2.08;;;5.70;99.90;;;;;;5028321;28;20232;-72
2022/01/08 10:18:12;;;;;;;4.38;2.20;;;5.70;99.90;;;;;;5006784;28;20229;-72
2022/01/08 10:20:43;;;;;;;2.20;1.95;;;5.70;99.90;;;;;;5009070;28;20268;-73
2022/01/08 10:23:17;;;;;;;4.43;3.30;;;5.70;99.90;;;;;;5030628;28;20217;-73
2022/01/08 10:26:01;;;;;;;2.63;2.42;;;5.70;99.90;;;;;;5027514;28;20734;-72
2022/01/08 10:28:38;;;;;;;3.40;2.00;;;5.70;99.90;;;;;;5027355;28;20282;-73
2022/01/08 10:31:12;;;;;;;2.50;2.22;;;5.70;99.90;;;;;;5029191;28;20866;-73
2022/01/08 10:33:41;;;;;;;3.03;2.50;;;5.70;99.90;;;;;;5029609;28;20189;-72
2022/01/08 10:36:10;;;;;;;5.20;2.70;;;5.70;99.90;;;;;;5030130;28;20233;-73
2022/01/08 10:38:38;;;;;;;3.20;2.40;;;5.70;99.90;;;;;;5030439;28;20216;-73
2022/01/08 10:41:14;;;;;;;2.65;2.15;;;5.60;99.90;;;;;;5037388;28;20734;-72
2022/01/08 10:43:44;;;;;;;3.35;2.97;;;5.60;99.90;;;;;;5028391;28;20934;-72
2022/01/08 10:46:15;;;;;;;3.10;2.47;;;5.60;99.90;;;;;;5022380;28;20230;-72
2022/01/08 10:48:47;;;;;;;3.95;2.30;;;5.60;99.90;;;;;;5030118;28;20686;-73
2022/01/08 10:51:18;;;;;;;3.33;3.08;;;5.60;99.90;;;;;;5028959;28;20232;-72
2022/01/08 10:54:02;;;;;;;3.90;2.65;;;5.60;99.90;;;;;;5035256;28;20193;-72
2022/01/08 10:56:34;;;;;;;2.15;1.95;;;5.60;99.90;;;;;;5016403;28;20225;-72
2022/01/08 10:59:15;;;;;;;2.90;2.58;;;5.60;99.90;;;;;;5025409;28;20211;-72
2022/01/08 11:01:50;;;;;;;3.55;2.40;;;5.60;99.90;;;;;;5023202;28;20298;-73
2022/01/08 11:04:20;;;;;;;2.60;2.15;;;5.60;99.90;;;;;;5023484;28;20232;-73
2022/01/08 11:06:54;;;;;;;5.10;2.67;;;5.60;99.90;;;;;;5029152;28;20713;-72
2022/01/08 11:09:23;;;;;;;2.65;2.40;;;5.60;99.90;;;;;;5025657;28;20200;-73
2022/01/08 11:11:54;;;;;;;3.42;2.30;;;5.60;99.90;;;;;;5024611;28;20228;-72
2022/01/08 11:17:14;;;;;;;5.10;2.60;;;5.60;99.90;;;;;;5022044;28;20231;-72
2022/01/08 11:19:45;;;;;;;4.68;2.88;;;5.60;99.90;;;;;;5028780;28;20220;-73
2022/01/08 11:22:15;;;;;;;6.55;2.83;;;5.60;99.90;;;;;;5025188;28;20220;-72
2022/01/08 11:24:57;;;;;;;4.03;2.25;;;5.60;99.90;;;;;;5024978;28;20185;-73
2022/01/08 11:27:34;;;;;;;3.53;2.40;;;5.60;99.90;;;;;;5028146;28;20209;-72
2022/01/08 11:30:22;;;;;;;3.08;2.53;;;5.60;99.90;;;;;;5028184;28;20219;-73
2022/01/08 11:32:52;;;;;;;2.88;2.58;;;5.60;99.90;;;;;;5024041;28;20220;-71
2022/01/08 11:35:41;;;;;;;3.50;2.70;;;5.60;99.90;;;;;;5028168;28;20216;-72
2022/01/08 11:38:11;;;;;;;4.63;2.88;;;5.60;99.90;;;;;;5026722;28;20229;-73
2022/01/08 11:40:42;;;;;;;2.67;2.30;;;5.60;99.90;;;;;;5024376;28;20296;-72
2022/01/08 11:43:15;;;;;;;2.88;2.40;;;5.60;99.90;;;;;;5028474;28;20201;-73
2022/01/08 11:45:47;;;;;;;4.20;2.50;;;5.60;99.90;;;;;;5023199;28;20225;-72
2022/01/08 11:48:18;;;;;;;6.22;2.90;;;5.60;99.90;;;;;;5029147;28;20725;-72
2022/01/08 11:50:51;;;;;;;4.82;3.40;;;5.60;99.90;;;;;;5028475;28;20296;-72
2022/01/08 11:53:22;;;;;;;3.22;2.80;;;5.60;99.90;;;;;;5028988;28;20251;-72
2022/01/08 11:55:52;;;;;;;5.68;3.33;;;5.60;99.90;;;;;;5025238;28;20291;-72
2022/01/08 11:58:26;;;;;;;3.00;2.65;;;5.60;99.90;;;;;;5022828;28;20186;-72
2022/01/08 12:00:59;;;;;;;5.30;2.85;;;5.60;99.90;;;;;;5024934;28;20220;-73
2022/01/08 12:03:33;;;;;;;5.20;3.25;;;5.60;99.90;;;;;;5028943;28;20737;-74
2022/01/08 12:06:33;;;;;;;3.60;2.90;;;5.60;99.90;;;;;;5027217;28;20721;-72
2022/01/08 12:09:18;;;;;;;3.38;2.45;;;5.60;99.90;;;;;;5025014;28;20181;-72
2022/01/08 12:11:57;;;;;;;7.60;2.72;;;5.60;99.90;;;;;;5024584;28;20241;-73
2022/01/08 12:14:29;;;;;;;4.63;3.35;;;5.60;99.90;;;;;;5028074;28;20223;-72
2022/01/08 12:16:58;;;;;;;18.85;16.60;;;5.60;99.90;;;;;;5013742;28;20485;-73
2022/01/08 12:19:30;;;;;;;5.38;4.60;;;5.60;99.90;;;;;;5024692;28;20194;-73
2022/01/08 12:21:59;;;;;;;7.75;5.30;;;5.60;99.90;;;;;;5028432;28;20233;-73
2022/01/08 12:24:37;;;;;;;8.65;7.85;;;5.60;99.90;;;;;;5027984;28;20201;-72
2022/01/08 12:27:36;;;;;;;4.68;4.28;;;5.60;99.90;;;;;;5017474;28;20298;-73
2022/01/08 12:30:26;;;;;;;3.75;3.45;;;5.60;99.90;;;;;;5027662;28;20219;-73
2022/01/08 12:33:16;;;;;;;5.05;3.30;;;5.60;99.90;;;;;;5028182;28;20638;-73
2022/01/08 12:35:45;;;;;;;6.63;3.72;;;5.60;99.90;;;;;;5019293;28;20207;-72
2022/01/08 12:38:31;;;;;;;5.00;4.10;;;5.60;99.90;;;;;;5027176;28;20268;-67
2022/01/08 12:41:01;;;;;;;4.90;4.25;;;5.60;99.90;;;;;;5021425;28;20786;-67
2022/01/08 12:43:31;;;;;;;6.40;4.82;;;5.60;99.90;;;;;;5027148;28;20204;-67
2022/01/08 12:46:17;;;;;;;4.78;4.38;;;5.60;99.90;;;;;;5025935;28;20857;-67
2022/01/08 12:49:12;;;;;;;9.85;3.80;;;5.60;99.90;;;;;;5026803;28;20180;-66
2022/01/08 12:52:08;;;;;;;4.40;3.65;;;5.60;99.90;;;;;;5027489;28;20229;-66
2022/01/08 12:54:36;;;;;;;3.90;3.55;;;5.60;99.90;;;;;;5016009;28;20186;-67
2022/01/08 12:57:06;;;;;;;5.22;3.25;;;5.60;99.90;;;;;;5026532;28;20220;-67
2022/01/08 12:59:37;;;;;;;4.78;3.22;;;5.60;99.90;;;;;;5026654;28;20743;-64
2022/01/08 13:02:11;;;;;;;4.63;3.10;;;5.60;99.90;;;;;;5024320;28;20333;-66
2022/01/08 13:04:40;;;;;;;4.43;3.10;;;5.60;99.90;;;;;;5027485;28;20419;-67
2022/01/08 13:07:10;;;;;;;5.72;3.05;;;5.50;99.90;;;;;;5027002;28;20228;-68
2022/01/08 13:09:38;;;;;;;5.28;3.30;;;5.50;99.90;;;;;;5024647;28;20280;-66
2022/01/08 13:12:07;;;;;;;3.80;3.38;;;5.60;99.90;;;;;;5016294;28;20248;-65
2022/01/08 13:14:35;;;;;;;4.43;2.80;;;5.50;99.90;;;;;;5024520;28;20201;-66
2022/01/08 13:17:03;;;;;;;4.72;2.53;;;5.50;99.90;;;;;;5011853;28;20244;-66
2022/01/08 13:19:33;;;;;;;16.05;13.05;;;5.50;99.90;;;;;;5017114;28;20251;-67
2022/01/08 13:22:04;;;;;;;4.40;3.10;;;5.50;99.90;;;;;;5027628;28;20229;-66
2022/01/08 13:24:33;;;;;;;2.72;2.53;;;5.50;99.90;;;;;;5021926;28;20279;-67
2022/01/08 13:27:03;;;;;;;5.45;3.20;;;5.50;99.90;;;;;;5025755;28;20233;-68
2022/01/08 13:29:34;;;;;;;5.40;3.72;;;5.50;99.90;;;;;;5027276;28;20197;-66
2022/01/08 13:32:05;;;;;;;3.65;3.30;;;5.50;99.90;;;;;;5015903;28;20259;-66
2022/01/08 13:34:37;;;;;;;3.92;3.22;;;5.50;99.90;;;;;;5026571;28;20201;-67